sensor_id;sensor_type;location;lat;lon;timestamp;temperature;humidity
73576;DHT22;61859;49.204;8.140;2022-08-21T00:02:22;18.40;65.00
73576;DHT22;61859;49.204;8.140;2022-08-21T00:04:48;18.40;64.60
73576;DHT22;61859;49.204;8.140;2022-08-21T00:07:15;18.30;64.60
73576;DHT22;61859;49.204;8.140;2022-08-21T00:09:40;18.40;64.60
73576;DHT22;61859;49.204;8.140;2022-08-21T00:12:06;18.30;64.60
73576;DHT22;61859;49.204;8.140;2022-08-21T00:14:33;18.30;64.80
73576;DHT22;61859;49.204;8.140;2022-08-21T00:16:59;18.30;65.20
73576;DHT22;61859;49.204;8.140;2022-08-21T00:19:26;18.20;65.60
73576;DHT22;61859;49.204;8.140;2022-08-21T00:21:52;18.20;66.10
73576;DHT22;61859;49.204;8.140;2022-08-21T00:24:19;18.10;66.40
73576;DHT22;61859;49.204;8.140;2022-08-21T00:26:45;18.10;66.00
73576;DHT22;61859;49.204;8.140;2022-08-21T00:29:10;18.00;66.00
73576;DHT22;61859;49.204;8.140;2022-08-21T00:31:37;18.10;66.50
73576;DHT22;61859;49.204;8.140;2022-08-21T00:34:03;18.00;66.20
73576;DHT22;61859;49.204;8.140;2022-08-21T00:36:29;18.00;66.20
73576;DHT22;61859;49.204;8.140;2022-08-21T00:38:55;18.00;66.30
73576;DHT22;61859;49.204;8.140;2022-08-21T00:41:21;18.00;66.10
73576;DHT22;61859;49.204;8.140;2022-08-21T00:43:49;17.90;66.30
73576;DHT22;61859;49.204;8.140;2022-08-21T00:46:15;17.90;67.20
73576;DHT22;61859;49.204;8.140;2022-08-21T00:48:41;17.80;67.30
73576;DHT22;61859;49.204;8.140;2022-08-21T00:53:56;17.70;67.90
73576;DHT22;61859;49.204;8.140;2022-08-21T00:56:23;17.50;68.60
73576;DHT22;61859;49.204;8.140;2022-08-21T00:58:49;17.50;68.70
73576;DHT22;61859;49.204;8.140;2022-08-21T01:01:17;17.50;68.70
73576;DHT22;61859;49.204;8.140;2022-08-21T01:03:42;17.50;69.50
73576;DHT22;61859;49.204;8.140;2022-08-21T01:06:08;17.30;69.70
73576;DHT22;61859;49.204;8.140;2022-08-21T01:08:35;17.30;69.10
73576;DHT22;61859;49.204;8.140;2022-08-21T01:11:01;17.30;69.40
73576;DHT22;61859;49.204;8.140;2022-08-21T01:13:31;17.30;69.20
73576;DHT22;61859;49.204;8.140;2022-08-21T01:15:59;17.30;69.00
73576;DHT22;61859;49.204;8.140;2022-08-21T01:18:27;17.30;68.80
73576;DHT22;61859;49.204;8.140;2022-08-21T01:23:31;17.30;68.80
73576;DHT22;61859;49.204;8.140;2022-08-21T01:25:57;17.30;68.80
73576;DHT22;61859;49.204;8.140;2022-08-21T01:28:23;17.30;68.80
73576;DHT22;61859;49.204;8.140;2022-08-21T01:30:50;17.30;69.00
73576;DHT22;61859;49.204;8.140;2022-08-21T01:33:18;17.30;69.00
73576;DHT22;61859;49.204;8.140;2022-08-21T01:35:45;17.20;69.00
73576;DHT22;61859;49.204;8.140;2022-08-21T01:38:11;17.20;69.40
73576;DHT22;61859;49.204;8.140;2022-08-21T01:40:37;17.30;69.20
73576;DHT22;61859;49.204;8.140;2022-08-21T01:43:03;17.20;69.10
73576;DHT22;61859;49.204;8.140;2022-08-21T01:45:29;17.30;69.40
73576;DHT22;61859;49.204;8.140;2022-08-21T01:47:54;17.20;69.40
73576;DHT22;61859;49.204;8.140;2022-08-21T01:50:20;17.10;69.60
73576;DHT22;61859;49.204;8.140;2022-08-21T01:52:47;17.10;69.50
73576;DHT22;61859;49.204;8.140;2022-08-21T01:55:16;17.10;69.70
73576;DHT22;61859;49.204;8.140;2022-08-21T01:57:43;17.10;69.70
73576;DHT22;61859;49.204;8.140;2022-08-21T02:00:11;17.10;69.90
73576;DHT22;61859;49.204;8.140;2022-08-21T02:02:38;17.10;70.00
73576;DHT22;61859;49.204;8.140;2022-08-21T02:05:05;17.10;69.90
73576;DHT22;61859;49.204;8.140;2022-08-21T02:07:38;17.10;69.60
73576;DHT22;61859;49.204;8.140;2022-08-21T02:10:07;17.10;69.70
73576;DHT22;61859;49.204;8.140;2022-08-21T02:12:34;17.20;69.60
73576;DHT22;61859;49.204;8.140;2022-08-21T02:15:00;17.10;69.60
73576;DHT22;61859;49.204;8.140;2022-08-21T02:17:25;17.10;69.50
73576;DHT22;61859;49.204;8.140;2022-08-21T02:19:51;17.10;69.40
73576;DHT22;61859;49.204;8.140;2022-08-21T02:22:17;17.10;69.70
73576;DHT22;61859;49.204;8.140;2022-08-21T02:24:42;17.10;69.60
73576;DHT22;61859;49.204;8.140;2022-08-21T02:27:08;17.00;70.30
73576;DHT22;61859;49.204;8.140;2022-08-21T02:29:33;17.00;70.10
73576;DHT22;61859;49.204;8.140;2022-08-21T02:31:59;17.00;70.30
73576;DHT22;61859;49.204;8.140;2022-08-21T02:34:24;17.00;70.00
73576;DHT22;61859;49.204;8.140;2022-08-21T02:36:50;16.90;70.00
73576;DHT22;61859;49.204;8.140;2022-08-21T02:39:16;17.00;70.60
73576;DHT22;61859;49.204;8.140;2022-08-21T02:41:41;16.90;70.50
73576;DHT22;61859;49.204;8.140;2022-08-21T02:44:07;16.90;70.60
73576;DHT22;61859;49.204;8.140;2022-08-21T02:46:32;16.90;70.90
73576;DHT22;61859;49.204;8.140;2022-08-21T02:48:58;16.80;70.60
73576;DHT22;61859;49.204;8.140;2022-08-21T02:51:23;16.80;71.00
73576;DHT22;61859;49.204;8.140;2022-08-21T02:53:51;16.80;71.10
73576;DHT22;61859;49.204;8.140;2022-08-21T02:56:18;16.80;71.40
73576;DHT22;61859;49.204;8.140;2022-08-21T02:58:48;16.80;71.00
73576;DHT22;61859;49.204;8.140;2022-08-21T03:01:15;16.80;71.10
73576;DHT22;61859;49.204;8.140;2022-08-21T03:03:43;16.70;71.70
73576;DHT22;61859;49.204;8.140;2022-08-21T03:06:11;16.70;72.40
73576;DHT22;61859;49.204;8.140;2022-08-21T03:08:37;16.70;72.70
73576;DHT22;61859;49.204;8.140;2022-08-21T03:11:04;16.50;73.10
73576;DHT22;61859;49.204;8.140;2022-08-21T03:13:29;16.50;72.70
73576;DHT22;61859;49.204;8.140;2022-08-21T03:15:56;16.40;73.40
73576;DHT22;61859;49.204;8.140;2022-08-21T03:18:22;16.40;73.60
73576;DHT22;61859;49.204;8.140;2022-08-21T03:20:47;16.40;73.30
73576;DHT22;61859;49.204;8.140;2022-08-21T03:23:14;16.40;73.40
73576;DHT22;61859;49.204;8.140;2022-08-21T03:25:40;16.30;73.30
73576;DHT22;61859;49.204;8.140;2022-08-21T03:28:09;16.30;73.70
73576;DHT22;61859;49.204;8.140;2022-08-21T03:30:35;16.30;73.40
73576;DHT22;61859;49.204;8.140;2022-08-21T03:33:02;16.30;73.50
73576;DHT22;61859;49.204;8.140;2022-08-21T03:35:28;16.30;73.50
73576;DHT22;61859;49.204;8.140;2022-08-21T03:37:54;16.20;73.50
73576;DHT22;61859;49.204;8.140;2022-08-21T03:40:21;16.20;73.70
73576;DHT22;61859;49.204;8.140;2022-08-21T03:42:47;16.20;73.80
73576;DHT22;61859;49.204;8.140;2022-08-21T03:45:15;16.20;74.20
73576;DHT22;61859;49.204;8.140;2022-08-21T03:47:58;16.10;74.60
73576;DHT22;61859;49.204;8.140;2022-08-21T03:50:26;16.00;74.80
73576;DHT22;61859;49.204;8.140;2022-08-21T03:52:51;16.10;75.20
73576;DHT22;61859;49.204;8.140;2022-08-21T03:55:17;16.00;75.20
73576;DHT22;61859;49.204;8.140;2022-08-21T03:57:43;15.90;75.30
73576;DHT22;61859;49.204;8.140;2022-08-21T04:00:10;15.90;75.40
73576;DHT22;61859;49.204;8.140;2022-08-21T04:02:37;15.80;76.00
73576;DHT22;61859;49.204;8.140;2022-08-21T04:05:04;15.80;76.30
73576;DHT22;61859;49.204;8.140;2022-08-21T04:07:30;15.80;76.40
73576;DHT22;61859;49.204;8.140;2022-08-21T04:09:55;15.70;76.70
73576;DHT22;61859;49.204;8.140;2022-08-21T04:12:21;15.70;76.60
73576;DHT22;61859;49.204;8.140;2022-08-21T04:14:47;15.80;76.70
73576;DHT22;61859;49.204;8.140;2022-08-21T04:17:12;15.60;76.70
73576;DHT22;61859;49.204;8.140;2022-08-21T04:19:38;15.60;76.40
73576;DHT22;61859;49.204;8.140;2022-08-21T04:22:04;15.70;76.50
73576;DHT22;61859;49.204;8.140;2022-08-21T04:24:29;15.60;76.30
73576;DHT22;61859;49.204;8.140;2022-08-21T04:26:55;15.50;76.60
73576;DHT22;61859;49.204;8.140;2022-08-21T04:29:20;15.50;76.80
73576;DHT22;61859;49.204;8.140;2022-08-21T04:31:46;15.40;77.20
73576;DHT22;61859;49.204;8.140;2022-08-21T04:34:11;15.40;77.60
73576;DHT22;61859;49.204;8.140;2022-08-21T04:36:37;15.40;78.20
73576;DHT22;61859;49.204;8.140;2022-08-21T04:39:03;15.30;78.30
73576;DHT22;61859;49.204;8.140;2022-08-21T04:41:28;15.30;78.60
73576;DHT22;61859;49.204;8.140;2022-08-21T04:43:55;15.30;78.70
73576;DHT22;61859;49.204;8.140;2022-08-21T04:46:21;15.30;78.70
73576;DHT22;61859;49.204;8.140;2022-08-21T04:48:47;15.30;78.90
73576;DHT22;61859;49.204;8.140;2022-08-21T04:51:25;15.30;79.20
73576;DHT22;61859;49.204;8.140;2022-08-21T04:53:55;15.30;79.30
73576;DHT22;61859;49.204;8.140;2022-08-21T04:56:26;15.30;78.90
73576;DHT22;61859;49.204;8.140;2022-08-21T04:58:55;15.40;78.90
73576;DHT22;61859;49.204;8.140;2022-08-21T05:01:23;15.40;79.10
73576;DHT22;61859;49.204;8.140;2022-08-21T05:03:54;15.30;79.20
73576;DHT22;61859;49.204;8.140;2022-08-21T05:06:21;15.40;78.90
73576;DHT22;61859;49.204;8.140;2022-08-21T05:08:49;15.40;79.40
73576;DHT22;61859;49.204;8.140;2022-08-21T05:11:17;15.40;79.10
73576;DHT22;61859;49.204;8.140;2022-08-21T05:13:43;15.40;79.00
73576;DHT22;61859;49.204;8.140;2022-08-21T05:16:08;15.40;79.70
73576;DHT22;61859;49.204;8.140;2022-08-21T05:18:34;15.50;78.30
73576;DHT22;61859;49.204;8.140;2022-08-21T05:21:00;15.60;78.60
73576;DHT22;61859;49.204;8.140;2022-08-21T05:23:26;15.60;78.90
73576;DHT22;61859;49.204;8.140;2022-08-21T05:25:52;15.70;78.80
73576;DHT22;61859;49.204;8.140;2022-08-21T05:28:18;15.70;78.60
73576;DHT22;61859;49.204;8.140;2022-08-21T05:30:44;15.80;78.50
73576;DHT22;61859;49.204;8.140;2022-08-21T05:33:10;15.90;78.00
73576;DHT22;61859;49.204;8.140;2022-08-21T05:35:37;16.00;78.00
73576;DHT22;61859;49.204;8.140;2022-08-21T05:38:04;16.10;77.90
73576;DHT22;61859;49.204;8.140;2022-08-21T05:40:30;16.10;77.60
73576;DHT22;61859;49.204;8.140;2022-08-21T05:42:56;16.10;77.40
73576;DHT22;61859;49.204;8.140;2022-08-21T05:45:28;16.30;77.20
73576;DHT22;61859;49.204;8.140;2022-08-21T05:47:54;16.30;77.20
73576;DHT22;61859;49.204;8.140;2022-08-21T05:50:20;16.40;76.90
73576;DHT22;61859;49.204;8.140;2022-08-21T05:52:45;16.50;76.00
73576;DHT22;61859;49.204;8.140;2022-08-21T05:55:11;16.60;75.80
73576;DHT22;61859;49.204;8.140;2022-08-21T05:57:37;16.60;75.50
73576;DHT22;61859;49.204;8.140;2022-08-21T06:00:07;16.70;75.30
73576;DHT22;61859;49.204;8.140;2022-08-21T06:02:34;16.80;75.30
73576;DHT22;61859;49.204;8.140;2022-08-21T06:04:59;16.80;74.90
73576;DHT22;61859;49.204;8.140;2022-08-21T06:07:25;17.00;74.30
73576;DHT22;61859;49.204;8.140;2022-08-21T06:09:50;17.00;74.50
73576;DHT22;61859;49.204;8.140;2022-08-21T06:12:17;17.10;73.70
73576;DHT22;61859;49.204;8.140;2022-08-21T06:14:42;17.20;73.00
73576;DHT22;61859;49.204;8.140;2022-08-21T06:17:10;17.30;73.10
73576;DHT22;61859;49.204;8.140;2022-08-21T06:19:36;17.50;72.90
73576;DHT22;61859;49.204;8.140;2022-08-21T06:22:02;17.60;73.20
73576;DHT22;61859;49.204;8.140;2022-08-21T06:24:28;17.70;72.70
73576;DHT22;61859;49.204;8.140;2022-08-21T06:26:54;17.90;71.90
73576;DHT22;61859;49.204;8.140;2022-08-21T06:29:20;18.10;71.00
73576;DHT22;61859;49.204;8.140;2022-08-21T06:31:47;18.20;69.90
73576;DHT22;61859;49.204;8.140;2022-08-21T06:34:13;18.40;69.50
73576;DHT22;61859;49.204;8.140;2022-08-21T06:36:39;18.50;68.50
73576;DHT22;61859;49.204;8.140;2022-08-21T06:39:04;18.70;67.20
73576;DHT22;61859;49.204;8.140;2022-08-21T06:41:30;18.90;65.90
73576;DHT22;61859;49.204;8.140;2022-08-21T06:43:57;19.00;65.50
73576;DHT22;61859;49.204;8.140;2022-08-21T06:46:25;19.20;66.30
73576;DHT22;61859;49.204;8.140;2022-08-21T06:48:51;19.40;65.60
73576;DHT22;61859;49.204;8.140;2022-08-21T06:51:17;19.70;65.50
73576;DHT22;61859;49.204;8.140;2022-08-21T06:53:42;19.80;63.60
73576;DHT22;61859;49.204;8.140;2022-08-21T06:56:08;19.90;64.00
73576;DHT22;61859;49.204;8.140;2022-08-21T06:58:33;20.20;64.30
73576;DHT22;61859;49.204;8.140;2022-08-21T07:00:59;20.40;64.00
73576;DHT22;61859;49.204;8.140;2022-08-21T07:03:40;20.60;63.00
73576;DHT22;61859;49.204;8.140;2022-08-21T07:06:08;20.80;60.40
73576;DHT22;61859;49.204;8.140;2022-08-21T07:08:34;21.10;60.20
73576;DHT22;61859;49.204;8.140;2022-08-21T07:11:02;21.30;59.30
73576;DHT22;61859;49.204;8.140;2022-08-21T07:13:29;21.50;58.40
73576;DHT22;61859;49.204;8.140;2022-08-21T07:15:54;21.80;58.00
73576;DHT22;61859;49.204;8.140;2022-08-21T07:18:20;22.00;56.70
73576;DHT22;61859;49.204;8.140;2022-08-21T07:20:47;22.20;57.00
73576;DHT22;61859;49.204;8.140;2022-08-21T07:23:23;22.30;57.70
73576;DHT22;61859;49.204;8.140;2022-08-21T07:25:49;22.60;56.70
73576;DHT22;61859;49.204;8.140;2022-08-21T07:28:15;22.70;56.20
73576;DHT22;61859;49.204;8.140;2022-08-21T07:30:41;23.00;53.30
73576;DHT22;61859;49.204;8.140;2022-08-21T07:33:06;23.00;52.40
73576;DHT22;61859;49.204;8.140;2022-08-21T07:35:32;23.10;53.20
73576;DHT22;61859;49.204;8.140;2022-08-21T07:37:58;23.20;55.40
73576;DHT22;61859;49.204;8.140;2022-08-21T07:40:24;23.30;53.40
73576;DHT22;61859;49.204;8.140;2022-08-21T07:42:49;23.60;51.80
73576;DHT22;61859;49.204;8.140;2022-08-21T07:45:18;23.80;52.40
73576;DHT22;61859;49.204;8.140;2022-08-21T07:47:44;23.90;50.40
73576;DHT22;61859;49.204;8.140;2022-08-21T07:50:11;24.00;51.30
73576;DHT22;61859;49.204;8.140;2022-08-21T07:52:37;24.10;49.10
73576;DHT22;61859;49.204;8.140;2022-08-21T07:55:03;24.10;50.00
73576;DHT22;61859;49.204;8.140;2022-08-21T07:57:29;24.30;49.60
73576;DHT22;61859;49.204;8.140;2022-08-21T07:59:54;24.40;47.30
73576;DHT22;61859;49.204;8.140;2022-08-21T08:02:24;24.60;49.00
73576;DHT22;61859;49.204;8.140;2022-08-21T08:04:50;24.80;48.40
73576;DHT22;61859;49.204;8.140;2022-08-21T08:07:16;25.00;46.90
73576;DHT22;61859;49.204;8.140;2022-08-21T08:09:41;25.10;46.10
73576;DHT22;61859;49.204;8.140;2022-08-21T08:12:07;25.00;47.60
73576;DHT22;61859;49.204;8.140;2022-08-21T08:14:32;25.10;46.30
73576;DHT22;61859;49.204;8.140;2022-08-21T08:16:59;25.20;46.10
73576;DHT22;61859;49.204;8.140;2022-08-21T08:19:24;25.40;45.60
73576;DHT22;61859;49.204;8.140;2022-08-21T08:21:50;25.40;44.60
73576;DHT22;61859;49.204;8.140;2022-08-21T08:24:15;25.50;46.50
73576;DHT22;61859;49.204;8.140;2022-08-21T08:26:41;25.70;48.10
73576;DHT22;61859;49.204;8.140;2022-08-21T08:29:06;25.80;46.40
73576;DHT22;61859;49.204;8.140;2022-08-21T08:31:33;26.00;46.70
73576;DHT22;61859;49.204;8.140;2022-08-21T08:33:59;26.30;45.30
73576;DHT22;61859;49.204;8.140;2022-08-21T08:36:33;26.40;44.50
73576;DHT22;61859;49.204;8.140;2022-08-21T08:38:59;26.40;44.20
73576;DHT22;61859;49.204;8.140;2022-08-21T08:41:26;26.60;44.90
73576;DHT22;61859;49.204;8.140;2022-08-21T08:43:54;26.70;44.00
73576;DHT22;61859;49.204;8.140;2022-08-21T08:46:29;26.70;42.90
73576;DHT22;61859;49.204;8.140;2022-08-21T08:49:02;26.60;44.00
73576;DHT22;61859;49.204;8.140;2022-08-21T08:51:45;26.70;45.60
73576;DHT22;61859;49.204;8.140;2022-08-21T08:54:15;26.80;44.10
73576;DHT22;61859;49.204;8.140;2022-08-21T08:56:43;27.10;43.50
73576;DHT22;61859;49.204;8.140;2022-08-21T08:59:15;27.20;43.00
73576;DHT22;61859;49.204;8.140;2022-08-21T09:01:43;27.20;43.00
73576;DHT22;61859;49.204;8.140;2022-08-21T09:04:10;27.40;42.70
73576;DHT22;61859;49.204;8.140;2022-08-21T09:06:55;27.60;42.70
73576;DHT22;61859;49.204;8.140;2022-08-21T09:12:30;27.90;41.70
73576;DHT22;61859;49.204;8.140;2022-08-21T09:15:01;28.10;41.60
73576;DHT22;61859;49.204;8.140;2022-08-21T09:17:48;28.30;42.00
73576;DHT22;61859;49.204;8.140;2022-08-21T09:23:25;28.70;41.70
73576;DHT22;61859;49.204;8.140;2022-08-21T09:26:08;28.70;41.20
73576;DHT22;61859;49.204;8.140;2022-08-21T09:28:37;29.00;39.70
73576;DHT22;61859;49.204;8.140;2022-08-21T09:31:19;29.00;39.60
73576;DHT22;61859;49.204;8.140;2022-08-21T09:33:46;29.20;38.10
73576;DHT22;61859;49.204;8.140;2022-08-21T09:36:11;29.10;39.20
73576;DHT22;61859;49.204;8.140;2022-08-21T09:38:37;29.10;40.10
73576;DHT22;61859;49.204;8.140;2022-08-21T09:41:05;29.30;40.20
73576;DHT22;61859;49.204;8.140;2022-08-21T09:43:32;29.50;39.50
73576;DHT22;61859;49.204;8.140;2022-08-21T09:46:11;29.70;37.80
73576;DHT22;61859;49.204;8.140;2022-08-21T09:48:41;29.70;37.90
73576;DHT22;61859;49.204;8.140;2022-08-21T09:51:11;29.60;38.10
73576;DHT22;61859;49.204;8.140;2022-08-21T09:53:41;29.60;38.80
73576;DHT22;61859;49.204;8.140;2022-08-21T09:56:25;29.70;39.10
73576;DHT22;61859;49.204;8.140;2022-08-21T09:59:19;30.10;39.00
73576;DHT22;61859;49.204;8.140;2022-08-21T10:01:48;30.30;38.50
73576;DHT22;61859;49.204;8.140;2022-08-21T10:04:14;30.50;38.70
73576;DHT22;61859;49.204;8.140;2022-08-21T10:06:40;31.00;37.20
73576;DHT22;61859;49.204;8.140;2022-08-21T10:09:18;31.00;36.30
73576;DHT22;61859;49.204;8.140;2022-08-21T10:11:52;30.80;36.20
73576;DHT22;61859;49.204;8.140;2022-08-21T10:22:32;30.30;36.20
73576;DHT22;61859;49.204;8.140;2022-08-21T10:25:16;30.30;37.70
73576;DHT22;61859;49.204;8.140;2022-08-21T10:30:21;30.50;36.90
73576;DHT22;61859;49.204;8.140;2022-08-21T10:33:33;30.70;36.90
73576;DHT22;61859;49.204;8.140;2022-08-21T10:36:27;30.90;35.90
73576;DHT22;61859;49.204;8.140;2022-08-21T10:39:03;31.10;36.50
73576;DHT22;61859;49.204;8.140;2022-08-21T10:47:04;31.70;36.40
73576;DHT22;61859;49.204;8.140;2022-08-21T10:55:21;32.00;36.20
73576;DHT22;61859;49.204;8.140;2022-08-21T11:00:22;32.50;35.80
73576;DHT22;61859;49.204;8.140;2022-08-21T11:03:04;32.40;34.70
73576;DHT22;61859;49.204;8.140;2022-08-21T11:05:41;31.90;34.70
73576;DHT22;61859;49.204;8.140;2022-08-21T11:08:15;31.70;36.10
73576;DHT22;61859;49.204;8.140;2022-08-21T11:10:47;31.60;35.90
73576;DHT22;61859;49.204;8.140;2022-08-21T11:13:19;31.70;35.40
73576;DHT22;61859;49.204;8.140;2022-08-21T11:16:07;31.80;35.00
73576;DHT22;61859;49.204;8.140;2022-08-21T11:18:38;31.90;35.20
73576;DHT22;61859;49.204;8.140;2022-08-21T11:23:59;32.30;35.10
73576;DHT22;61859;49.204;8.140;2022-08-21T11:26:50;32.50;34.30
73576;DHT22;61859;49.204;8.140;2022-08-21T11:29:37;32.40;33.90
73576;DHT22;61859;49.204;8.140;2022-08-21T11:34:50;31.50;35.20
73576;DHT22;61859;49.204;8.140;2022-08-21T11:40:10;32.40;34.70
73576;DHT22;61859;49.204;8.140;2022-08-21T11:42:50;32.80;33.30
73576;DHT22;61859;49.204;8.140;2022-08-21T11:45:51;33.20;33.60
73576;DHT22;61859;49.204;8.140;2022-08-21T11:48:50;33.30;33.10
73576;DHT22;61859;49.204;8.140;2022-08-21T11:51:21;32.80;33.30
73576;DHT22;61859;49.204;8.140;2022-08-21T11:54:05;32.50;34.30
73576;DHT22;61859;49.204;8.140;2022-08-21T11:56:43;32.90;32.80
73576;DHT22;61859;49.204;8.140;2022-08-21T11:59:51;32.70;34.50
73576;DHT22;61859;49.204;8.140;2022-08-21T12:02:14;33.00;33.90
73576;DHT22;61859;49.204;8.140;2022-08-21T12:04:56;33.20;33.70
73576;DHT22;61859;49.204;8.140;2022-08-21T12:07:39;33.00;32.90
73576;DHT22;61859;49.204;8.140;2022-08-21T12:10:17;33.00;33.10
73576;DHT22;61859;49.204;8.140;2022-08-21T12:12:46;33.20;34.20
73576;DHT22;61859;49.204;8.140;2022-08-21T12:23:05;34.10;32.80
73576;DHT22;61859;49.204;8.140;2022-08-21T12:25:40;34.50;32.60
73576;DHT22;61859;49.204;8.140;2022-08-21T12:28:09;34.60;33.00
73576;DHT22;61859;49.204;8.140;2022-08-21T12:30:39;34.70;30.80
73576;DHT22;61859;49.204;8.140;2022-08-21T12:33:18;34.90;32.20
73576;DHT22;61859;49.204;8.140;2022-08-21T12:35:45;34.70;31.40
73576;DHT22;61859;49.204;8.140;2022-08-21T12:38:29;34.60;31.80
73576;DHT22;61859;49.204;8.140;2022-08-21T12:41:06;34.80;31.70
73576;DHT22;61859;49.204;8.140;2022-08-21T12:43:41;34.60;31.00
73576;DHT22;61859;49.204;8.140;2022-08-21T12:46:37;34.30;31.30
73576;DHT22;61859;49.204;8.140;2022-08-21T12:49:08;33.70;32.00
73576;DHT22;61859;49.204;8.140;2022-08-21T12:51:54;33.60;32.20
73576;DHT22;61859;49.204;8.140;2022-08-21T12:54:36;33.80;31.10
73576;DHT22;61859;49.204;8.140;2022-08-21T12:57:04;33.60;31.90
73576;DHT22;61859;49.204;8.140;2022-08-21T12:59:36;33.70;31.10
73576;DHT22;61859;49.204;8.140;2022-08-21T13:02:05;33.80;31.60
73576;DHT22;61859;49.204;8.140;2022-08-21T13:04:39;34.20;30.80
73576;DHT22;61859;49.204;8.140;2022-08-21T13:07:07;34.50;31.20
73576;DHT22;61859;49.204;8.140;2022-08-21T13:09:47;34.90;30.90
73576;DHT22;61859;49.204;8.140;2022-08-21T13:12:15;35.30;29.90
73576;DHT22;61859;49.204;8.140;2022-08-21T13:14:44;35.50;30.30
73576;DHT22;61859;49.204;8.140;2022-08-21T13:17:12;36.00;29.90
73576;DHT22;61859;49.204;8.140;2022-08-21T13:19:38;36.20;29.10
73576;DHT22;61859;49.204;8.140;2022-08-21T13:22:12;36.40;29.10
73576;DHT22;61859;49.204;8.140;2022-08-21T13:24:38;36.10;28.60
73576;DHT22;61859;49.204;8.140;2022-08-21T13:30:05;35.60;29.20
73576;DHT22;61859;49.204;8.140;2022-08-21T13:32:35;35.50;29.30
73576;DHT22;61859;49.204;8.140;2022-08-21T13:35:15;36.20;29.30
73576;DHT22;61859;49.204;8.140;2022-08-21T13:37:43;36.20;28.50
73576;DHT22;61859;49.204;8.140;2022-08-21T13:40:19;36.30;29.80
73576;DHT22;61859;49.204;8.140;2022-08-21T13:42:46;37.10;29.20
73576;DHT22;61859;49.204;8.140;2022-08-21T13:45:38;38.00;29.40
73576;DHT22;61859;49.204;8.140;2022-08-21T13:48:08;38.60;28.20
73576;DHT22;61859;49.204;8.140;2022-08-21T13:50:35;39.00;26.80
73576;DHT22;61859;49.204;8.140;2022-08-21T13:53:04;38.30;27.30
73576;DHT22;61859;49.204;8.140;2022-08-21T13:55:43;37.90;27.70
73576;DHT22;61859;49.204;8.140;2022-08-21T13:58:10;37.60;28.40
73576;DHT22;61859;49.204;8.140;2022-08-21T14:00:49;37.70;28.50
73576;DHT22;61859;49.204;8.140;2022-08-21T14:03:41;37.70;27.50
73576;DHT22;61859;49.204;8.140;2022-08-21T14:06:12;37.60;27.90
73576;DHT22;61859;49.204;8.140;2022-08-21T14:08:40;38.00;27.60
73576;DHT22;61859;49.204;8.140;2022-08-21T14:11:13;38.60;27.10
73576;DHT22;61859;49.204;8.140;2022-08-21T14:16:22;38.80;26.60
73576;DHT22;61859;49.204;8.140;2022-08-21T14:18:49;38.20;27.30
73576;DHT22;61859;49.204;8.140;2022-08-21T14:21:29;38.10;27.40
73576;DHT22;61859;49.204;8.140;2022-08-21T14:24:12;38.20;27.70
73576;DHT22;61859;49.204;8.140;2022-08-21T14:26:48;38.10;27.30
73576;DHT22;61859;49.204;8.140;2022-08-21T14:29:16;38.00;27.50
73576;DHT22;61859;49.204;8.140;2022-08-21T14:31:48;38.00;27.60
73576;DHT22;61859;49.204;8.140;2022-08-21T14:34:14;38.10;27.80
73576;DHT22;61859;49.204;8.140;2022-08-21T14:36:42;38.20;27.40
73576;DHT22;61859;49.204;8.140;2022-08-21T14:39:09;38.70;27.30
73576;DHT22;61859;49.204;8.140;2022-08-21T14:41:35;39.10;27.40
73576;DHT22;61859;49.204;8.140;2022-08-21T14:44:01;39.60;26.90
73576;DHT22;61859;49.204;8.140;2022-08-21T14:46:29;40.00;26.50
73576;DHT22;61859;49.204;8.140;2022-08-21T14:48:55;40.10;26.40
73576;DHT22;61859;49.204;8.140;2022-08-21T14:51:21;40.20;26.20
73576;DHT22;61859;49.204;8.140;2022-08-21T14:53:47;40.10;26.20
73576;DHT22;61859;49.204;8.140;2022-08-21T14:56:13;39.80;25.30
73576;DHT22;61859;49.204;8.140;2022-08-21T14:58:46;39.40;26.20
73576;DHT22;61859;49.204;8.140;2022-08-21T15:01:15;39.50;26.40
73576;DHT22;61859;49.204;8.140;2022-08-21T15:03:40;39.80;26.20
73576;DHT22;61859;49.204;8.140;2022-08-21T15:06:07;39.70;26.40
73576;DHT22;61859;49.204;8.140;2022-08-21T15:08:33;39.80;26.20
73576;DHT22;61859;49.204;8.140;2022-08-21T15:11:00;39.10;25.70
73576;DHT22;61859;49.204;8.140;2022-08-21T15:13:27;39.30;25.80
73576;DHT22;61859;49.204;8.140;2022-08-21T15:15:53;39.30;26.40
73576;DHT22;61859;49.204;8.140;2022-08-21T15:18:20;39.20;26.00
73576;DHT22;61859;49.204;8.140;2022-08-21T15:20:46;38.80;26.50
73576;DHT22;61859;49.204;8.140;2022-08-21T15:23:12;38.70;26.40
73576;DHT22;61859;49.204;8.140;2022-08-21T15:25:44;38.90;26.70
73576;DHT22;61859;49.204;8.140;2022-08-21T15:28:10;38.50;27.00
73576;DHT22;61859;49.204;8.140;2022-08-21T15:30:38;38.30;26.40
73576;DHT22;61859;49.204;8.140;2022-08-21T15:33:04;38.00;27.50
73576;DHT22;61859;49.204;8.140;2022-08-21T15:35:30;37.90;27.30
73576;DHT22;61859;49.204;8.140;2022-08-21T15:37:56;37.80;27.60
73576;DHT22;61859;49.204;8.140;2022-08-21T15:40:21;37.70;27.90
73576;DHT22;61859;49.204;8.140;2022-08-21T15:42:47;37.20;27.50
73576;DHT22;61859;49.204;8.140;2022-08-21T15:45:13;37.20;27.70
73576;DHT22;61859;49.204;8.140;2022-08-21T15:47:43;36.70;27.40
73576;DHT22;61859;49.204;8.140;2022-08-21T15:50:12;36.40;27.80
73576;DHT22;61859;49.204;8.140;2022-08-21T15:52:38;36.20;27.60
73576;DHT22;61859;49.204;8.140;2022-08-21T15:55:05;36.00;28.30
73576;DHT22;61859;49.204;8.140;2022-08-21T15:57:31;36.00;27.60
73576;DHT22;61859;49.204;8.140;2022-08-21T16:00:00;35.60;28.50
73576;DHT22;61859;49.204;8.140;2022-08-21T16:02:34;35.40;28.30
73576;DHT22;61859;49.204;8.140;2022-08-21T16:05:01;35.10;28.30
73576;DHT22;61859;49.204;8.140;2022-08-21T16:07:26;34.70;28.50
73576;DHT22;61859;49.204;8.140;2022-08-21T16:09:53;34.50;28.90
73576;DHT22;61859;49.204;8.140;2022-08-21T16:12:33;34.40;28.30
73576;DHT22;61859;49.204;8.140;2022-08-21T16:15:02;34.20;29.50
73576;DHT22;61859;49.204;8.140;2022-08-21T16:17:31;34.10;29.70
73576;DHT22;61859;49.204;8.140;2022-08-21T16:19:57;33.70;31.10
73576;DHT22;61859;49.204;8.140;2022-08-21T16:22:23;33.70;30.80
73576;DHT22;61859;49.204;8.140;2022-08-21T16:24:49;33.70;29.90
73576;DHT22;61859;49.204;8.140;2022-08-21T16:27:14;34.00;29.70
73576;DHT22;61859;49.204;8.140;2022-08-21T16:29:42;34.30;29.20
73576;DHT22;61859;49.204;8.140;2022-08-21T16:32:07;34.50;28.60
73576;DHT22;61859;49.204;8.140;2022-08-21T16:34:34;34.70;28.40
73576;DHT22;61859;49.204;8.140;2022-08-21T16:37:00;34.90;28.30
73576;DHT22;61859;49.204;8.140;2022-08-21T16:39:25;34.80;28.00
73576;DHT22;61859;49.204;8.140;2022-08-21T16:41:51;34.70;29.00